Time;durP1;ratioP1;P1;durP2;ratioP2;P2;SDS_P1;SDS_P2;PMS_P1;PMS_P2;Temp;Humidity;BMP_temperature;BMP_pressure;BME280_temperature;BME280_humidity;BME280_pressure;Samples;Min_cycle;Max_cycle;Signal;HPM_P1;HPM_P2
2021/03/23 00:00:41;;;;;;;4.33;2.50;;;5.40;99.90;;;;;;5094053;28;20188;-61
2021/03/23 00:03:29;;;;;;;4.27;2.20;;;5.30;99.90;;;;;;5094158;28;20206;-61
2021/03/23 00:05:57;;;;;;;3.23;2.30;;;5.40;99.90;;;;;;5093912;28;20297;-62
2021/03/23 00:08:27;;;;;;;2.77;2.20;;;5.30;99.90;;;;;;5093364;28;20203;-63
2021/03/23 00:10:56;;;;;;;2.80;2.27;;;5.20;99.90;;;;;;5093531;28;20702;-61
2021/03/23 00:13:23;;;;;;;3.93;2.50;;;5.10;99.90;;;;;;5093600;28;20220;-62
2021/03/23 00:15:51;;;;;;;3.13;2.37;;;5.20;99.90;;;;;;5093808;28;20199;-61
2021/03/23 00:18:19;;;;;;;3.47;2.53;;;5.20;99.90;;;;;;5100478;28;20282;-61
2021/03/23 00:20:47;;;;;;;4.40;2.47;;;5.30;99.90;;;;;;5103524;28;20223;-61
2021/03/23 00:23:14;;;;;;;4.47;2.37;;;5.40;99.90;;;;;;5096304;28;20206;-61
2021/03/23 00:25:41;;;;;;;2.93;2.30;;;5.50;99.90;;;;;;5093556;28;20220;-62
2021/03/23 00:28:08;;;;;;;5.50;2.63;;;5.60;99.90;;;;;;5093671;28;20294;-62
2021/03/23 00:30:35;;;;;;;5.33;2.60;;;5.60;99.90;;;;;;5093202;28;20760;-61
2021/03/23 00:33:03;;;;;;;4.00;3.17;;;5.70;99.90;;;;;;5092574;28;20207;-62
2021/03/23 00:35:30;;;;;;;3.87;2.60;;;5.70;99.90;;;;;;5093665;28;20199;-61
2021/03/23 00:38:00;;;;;;;6.43;2.30;;;5.70;99.90;;;;;;5093561;28;20219;-61
2021/03/23 00:40:29;;;;;;;4.37;3.00;;;5.80;99.90;;;;;;5093505;28;20285;-61
2021/03/23 00:42:57;;;;;;;3.90;2.60;;;5.90;99.90;;;;;;5093115;28;20298;-62
2021/03/23 00:45:27;;;;;;;2.90;2.40;;;5.90;99.90;;;;;;5093038;28;20293;-62
2021/03/23 00:47:54;;;;;;;5.50;2.87;;;6.00;99.90;;;;;;5092800;28;20856;-62
2021/03/23 00:50:22;;;;;;;4.00;2.90;;;5.90;99.90;;;;;;5092584;28;20203;-62
2021/03/23 00:52:49;;;;;;;4.83;3.00;;;6.00;99.90;;;;;;5092478;28;20290;-61
2021/03/23 00:55:16;;;;;;;5.00;3.00;;;6.10;99.90;;;;;;5092432;28;20733;-62
2021/03/23 00:57:43;;;;;;;4.80;2.50;;;6.00;99.90;;;;;;5093090;28;20211;-62
2021/03/23 01:00:12;;;;;;;5.93;2.80;;;5.90;99.90;;;;;;5092689;28;20204;-62
2021/03/23 01:02:39;;;;;;;3.43;2.73;;;6.00;99.90;;;;;;5093086;28;20679;-61
2021/03/23 01:05:08;;;;;;;5.27;3.40;;;5.90;99.90;;;;;;5092950;28;20631;-61
2021/03/23 01:07:36;;;;;;;4.77;2.90;;;6.00;99.90;;;;;;5093027;28;20293;-61
2021/03/23 01:10:04;;;;;;;4.70;2.93;;;6.00;99.90;;;;;;5092833;28;20282;-61
2021/03/23 01:12:31;;;;;;;5.77;3.20;;;6.00;99.90;;;;;;5093162;28;20294;-61
2021/03/23 01:14:57;;;;;;;4.67;2.77;;;6.00;99.90;;;;;;5092349;28;20205;-60
2021/03/23 01:17:24;;;;;;;4.27;2.73;;;6.00;99.90;;;;;;5093046;28;20335;-62
2021/03/23 01:19:51;;;;;;;3.90;3.23;;;6.10;99.90;;;;;;5092846;28;20285;-62
2021/03/23 01:22:18;;;;;;;5.10;3.30;;;6.10;99.90;;;;;;5093145;28;20285;-62
2021/03/23 01:24:46;;;;;;;4.13;2.53;;;6.20;99.90;;;;;;5092441;28;20208;-62
2021/03/23 01:27:13;;;;;;;6.07;2.80;;;6.20;99.90;;;;;;5092592;28;20667;-62
2021/03/23 01:29:39;;;;;;;8.07;3.03;;;6.20;99.90;;;;;;5092316;28;20260;-61
2021/03/23 01:32:07;;;;;;;4.90;2.80;;;6.20;99.90;;;;;;5092874;28;20225;-62
2021/03/23 01:34:45;;;;;;;6.10;3.20;;;6.10;99.90;;;;;;5092632;28;20759;-61
2021/03/23 01:37:12;;;;;;;4.60;3.00;;;6.00;99.90;;;;;;5092726;28;20277;-61
2021/03/23 01:39:40;;;;;;;5.87;2.80;;;6.00;99.90;;;;;;5092140;28;20223;-62
2021/03/23 01:42:10;;;;;;;4.07;2.57;;;6.00;99.90;;;;;;5092842;28;20206;-62
2021/03/23 01:44:38;;;;;;;4.60;2.57;;;6.00;99.90;;;;;;5094337;28;20210;-61
2021/03/23 01:47:06;;;;;;;3.87;2.20;;;6.00;99.90;;;;;;5096043;28;20203;-61
2021/03/23 01:49:37;;;;;;;3.87;2.30;;;6.00;99.90;;;;;;5096525;28;20628;-62
2021/03/23 01:52:09;;;;;;;3.37;2.20;;;6.00;99.90;;;;;;5096859;28;20291;-61
2021/03/23 01:54:42;;;;;;;4.53;2.40;;;6.00;99.90;;;;;;5096647;28;20263;-62
2021/03/23 01:57:13;;;;;;;4.50;2.60;;;5.90;99.90;;;;;;5096171;28;20238;-60
2021/03/23 01:59:43;;;;;;;2.80;2.10;;;5.90;99.90;;;;;;5095806;28;20187;-62
2021/03/23 02:02:10;;;;;;;4.13;2.60;;;5.90;99.90;;;;;;5096380;28;20190;-61
2021/03/23 02:04:37;;;;;;;3.93;2.00;;;5.90;99.90;;;;;;5096612;28;20294;-61
2021/03/23 02:07:05;;;;;;;3.70;2.20;;;5.90;99.90;;;;;;5096203;28;20675;-61
2021/03/23 02:09:34;;;;;;;2.70;1.73;;;5.90;99.90;;;;;;5096329;28;20251;-61
2021/03/23 02:12:05;;;;;;;4.17;2.10;;;5.90;99.90;;;;;;5095825;28;20281;-62
2021/03/23 02:14:35;;;;;;;3.43;2.10;;;5.80;99.90;;;;;;5095975;28;20273;-61
2021/03/23 02:17:21;;;;;;;4.67;2.47;;;5.80;99.90;;;;;;5095741;28;20321;-61
2021/03/23 02:19:49;;;;;;;2.87;2.00;;;5.80;99.90;;;;;;5095781;28;20626;-61
2021/03/23 02:22:24;;;;;;;4.20;2.17;;;5.70;99.90;;;;;;5096033;28;20674;-61
2021/03/23 02:24:51;;;;;;;4.00;2.23;;;5.70;99.90;;;;;;5095826;28;20278;-62
2021/03/23 02:27:18;;;;;;;4.73;2.53;;;5.60;99.90;;;;;;5095848;28;20227;-62
2021/03/23 02:29:45;;;;;;;2.90;2.23;;;5.60;99.90;;;;;;5095925;28;20654;-61
2021/03/23 02:32:12;;;;;;;4.53;2.50;;;5.60;99.90;;;;;;5096004;28;20312;-62
2021/03/23 02:34:39;;;;;;;4.33;2.77;;;5.60;99.90;;;;;;5095757;28;20295;-63
2021/03/23 02:37:06;;;;;;;6.27;2.40;;;5.60;99.90;;;;;;5095869;28;20224;-61
2021/03/23 02:39:35;;;;;;;4.13;2.37;;;5.70;99.90;;;;;;5095518;28;20206;-62
2021/03/23 02:42:03;;;;;;;5.57;2.90;;;5.50;99.90;;;;;;5095699;28;20313;-61
2021/03/23 02:44:37;;;;;;;3.70;2.80;;;5.50;99.90;;;;;;5095316;28;20331;-61
2021/03/23 02:47:05;;;;;;;4.90;2.93;;;5.60;99.90;;;;;;5095757;28;20277;-62
2021/03/23 02:49:32;;;;;;;5.63;2.47;;;5.70;99.90;;;;;;5095514;28;20595;-62
2021/03/23 02:51:59;;;;;;;5.90;2.87;;;5.70;99.90;;;;;;5095548;28;20235;-61
2021/03/23 02:54:26;;;;;;;5.50;3.07;;;5.70;99.90;;;;;;5095210;28;20669;-61
2021/03/23 02:56:54;;;;;;;3.70;2.50;;;5.70;99.90;;;;;;5094423;28;20319;-60
2021/03/23 02:59:20;;;;;;;4.43;2.93;;;5.70;99.90;;;;;;5095420;28;20627;-60
2021/03/23 03:01:47;;;;;;;7.70;2.80;;;5.70;99.90;;;;;;5095584;28;20565;-61
2021/03/23 03:04:15;;;;;;;4.97;3.17;;;5.70;99.90;;;;;;5095369;28;20214;-59
2021/03/23 03:06:42;;;;;;;4.40;2.70;;;5.70;99.90;;;;;;5095096;28;20229;-60
2021/03/23 03:09:09;;;;;;;4.30;2.67;;;5.70;99.90;;;;;;5095114;28;20199;-59
2021/03/23 03:11:36;;;;;;;6.17;2.53;;;5.80;99.90;;;;;;5094866;28;20231;-59
2021/03/23 03:14:05;;;;;;;4.30;2.30;;;5.80;99.90;;;;;;5094512;28;20227;-60
2021/03/23 03:16:31;;;;;;;6.80;2.70;;;5.80;99.90;;;;;;5095226;28;20203;-60
2021/03/23 03:18:59;;;;;;;4.53;2.60;;;5.80;99.90;;;;;;5094765;28;20227;-60
2021/03/23 03:21:26;;;;;;;3.57;2.87;;;5.80;99.90;;;;;;5094782;28;20560;-59
2021/03/23 03:23:54;;;;;;;5.07;2.43;;;5.80;99.90;;;;;;5094923;28;20286;-60
2021/03/23 03:26:21;;;;;;;4.00;2.80;;;5.70;99.90;;;;;;5094939;28;20289;-59
2021/03/23 03:28:51;;;;;;;4.50;2.63;;;5.80;99.90;;;;;;5094225;28;20684;-60
2021/03/23 03:31:21;;;;;;;3.77;2.60;;;5.80;99.90;;;;;;5095018;28;20603;-60
2021/03/23 03:33:49;;;;;;;4.83;2.90;;;5.70;99.90;;;;;;5094531;28;20186;-59
2021/03/23 03:36:17;;;;;;;3.47;2.57;;;5.70;99.90;;;;;;5093791;28;20194;-59
2021/03/23 03:38:47;;;;;;;3.90;2.77;;;5.70;99.90;;;;;;5094049;28;20821;-60
2021/03/23 03:41:14;;;;;;;4.87;2.50;;;5.70;99.90;;;;;;5094787;28;20212;-60
2021/03/23 03:43:41;;;;;;;4.63;2.43;;;5.70;99.90;;;;;;5094548;28;20197;-61
2021/03/23 03:46:08;;;;;;;3.10;2.33;;;5.70;99.90;;;;;;5094739;28;20202;-59
2021/03/23 03:48:36;;;;;;;3.60;1.90;;;5.70;99.90;;;;;;5094700;28;20200;-60
2021/03/23 03:51:04;;;;;;;4.83;2.30;;;5.70;99.90;;;;;;5094588;28;20284;-59
2021/03/23 03:53:31;;;;;;;3.73;2.23;;;5.60;99.90;;;;;;5094562;28;20224;-60
2021/03/23 03:55:58;;;;;;;7.27;2.40;;;5.70;99.90;;;;;;5094392;28;20245;-60
2021/03/23 03:58:25;;;;;;;3.37;2.17;;;5.60;99.90;;;;;;5093882;28;20276;-60
2021/03/23 04:00:52;;;;;;;4.63;2.37;;;5.60;99.90;;;;;;5094490;28;20202;-61
2021/03/23 04:03:22;;;;;;;3.13;1.90;;;5.60;99.90;;;;;;5094434;28;20206;-60
2021/03/23 04:05:53;;;;;;;2.50;2.20;;;5.50;99.90;;;;;;5094408;28;20194;-60
2021/03/23 04:08:21;;;;;;;3.23;2.30;;;5.50;99.90;;;;;;5094460;28;20207;-59
2021/03/23 04:10:49;;;;;;;3.60;2.17;;;5.40;99.90;;;;;;5093971;28;20325;-59
2021/03/23 04:13:17;;;;;;;4.07;2.00;;;5.40;99.90;;;;;;5094372;28;20302;-61
2021/03/23 04:15:47;;;;;;;3.97;2.00;;;5.40;99.90;;;;;;5097106;28;20645;-61
2021/03/23 04:18:16;;;;;;;3.27;2.47;;;5.40;99.90;;;;;;5094640;28;20312;-61
2021/03/23 04:20:43;;;;;;;3.37;2.37;;;5.40;99.90;;;;;;5096361;28;20209;-61
2021/03/23 04:23:21;;;;;;;4.77;2.40;;;5.40;99.90;;;;;;5094199;28;20199;-62
2021/03/23 04:25:49;;;;;;;4.17;2.00;;;5.50;99.90;;;;;;5093792;28;20281;-62
2021/03/23 04:28:16;;;;;;;2.90;1.83;;;5.50;99.90;;;;;;5093991;28;20279;-62
2021/03/23 04:30:43;;;;;;;1.77;1.63;;;5.50;99.90;;;;;;5094117;28;20208;-61
2021/03/23 04:33:10;;;;;;;2.40;1.80;;;5.60;99.90;;;;;;5093397;28;20210;-61
2021/03/23 04:35:45;;;;;;;2.13;1.53;;;5.60;99.90;;;;;;5093794;28;20235;-61
2021/03/23 04:38:17;;;;;;;2.80;1.43;;;5.60;99.90;;;;;;5093825;28;20200;-61
2021/03/23 04:40:44;;;;;;;3.27;1.37;;;5.70;99.90;;;;;;5093437;28;20191;-62
2021/03/23 04:43:18;;;;;;;2.53;1.70;;;5.70;99.90;;;;;;5093523;28;20239;-61
2021/03/23 04:45:45;;;;;;;3.47;1.60;;;5.60;99.90;;;;;;5093526;28;20230;-62
2021/03/23 04:48:12;;;;;;;3.07;1.60;;;5.60;99.90;;;;;;5093216;28;20401;-61
2021/03/23 04:50:39;;;;;;;2.60;1.53;;;5.50;99.90;;;;;;5093430;28;20207;-61
2021/03/23 04:53:06;;;;;;;2.30;1.87;;;5.50;99.90;;;;;;5093383;28;20302;-62
2021/03/23 04:55:37;;;;;;;2.00;1.80;;;5.50;99.90;;;;;;5093195;28;20538;-61
2021/03/23 04:58:04;;;;;;;3.20;2.37;;;5.50;99.90;;;;;;5093103;28;20228;-62
2021/03/23 05:00:31;;;;;;;4.63;3.13;;;5.50;99.90;;;;;;5092860;28;20632;-61
2021/03/23 05:02:58;;;;;;;5.70;3.37;;;5.50;99.90;;;;;;5092864;28;20297;-61
2021/03/23 05:05:25;;;;;;;9.00;4.33;;;5.50;99.90;;;;;;5093342;28;20217;-62
2021/03/23 05:07:51;;;;;;;5.50;4.13;;;5.50;99.90;;;;;;5093155;28;20258;-61
2021/03/23 05:10:18;;;;;;;6.20;4.27;;;5.50;99.90;;;;;;5092518;28;20325;-61
2021/03/23 05:12:46;;;;;;;7.53;4.37;;;5.50;99.90;;;;;;5093060;28;20181;-61
2021/03/23 05:15:14;;;;;;;7.20;4.03;;;5.50;99.90;;;;;;5093069;28;20308;-62
2021/03/23 05:17:41;;;;;;;6.23;3.97;;;5.60;99.90;;;;;;5092785;28;20223;-61
2021/03/23 05:20:09;;;;;;;7.30;4.90;;;5.60;99.90;;;;;;5092595;28;20203;-61
2021/03/23 05:22:36;;;;;;;9.63;4.60;;;5.50;99.90;;;;;;5093016;28;20226;-62
2021/03/23 05:25:05;;;;;;;6.30;4.67;;;5.60;99.90;;;;;;5092402;28;20215;-60
2021/03/23 05:27:32;;;;;;;7.73;4.50;;;5.50;99.90;;;;;;5092078;28;20209;-61
2021/03/23 05:30:00;;;;;;;6.20;4.80;;;5.60;99.90;;;;;;5092672;28;20221;-61
2021/03/23 05:32:28;;;;;;;6.93;4.57;;;5.50;99.90;;;;;;5091801;28;20202;-62
2021/03/23 05:34:55;;;;;;;8.17;4.40;;;5.60;99.90;;;;;;5092543;28;20211;-62
2021/03/23 05:37:27;;;;;;;6.43;4.63;;;5.50;99.90;;;;;;5092402;28;20588;-61
2021/03/23 05:39:54;;;;;;;7.73;4.80;;;5.50;99.90;;;;;;5085489;28;20271;-61
2021/03/23 05:42:26;;;;;;;8.53;4.90;;;5.50;99.90;;;;;;5076798;28;20242;-62
2021/03/23 05:44:59;;;;;;;8.50;4.60;;;5.60;99.90;;;;;;5092810;28;20183;-62
2021/03/23 05:47:32;;;;;;;9.23;4.90;;;5.50;99.90;;;;;;5073758;28;20209;-61
2021/03/23 05:50:08;;;;;;;7.13;4.73;;;5.50;99.90;;;;;;5072559;28;20189;-61
2021/03/23 05:52:38;;;;;;;7.33;4.90;;;5.60;99.90;;;;;;5092329;28;20830;-61
2021/03/23 05:55:16;;;;;;;9.47;4.73;;;5.60;99.90;;;;;;5092645;28;20221;-61
2021/03/23 05:57:46;;;;;;;8.80;5.30;;;5.70;99.90;;;;;;5091992;28;20290;-61
2021/03/23 06:00:22;;;;;;;8.63;5.20;;;5.70;99.90;;;;;;5092592;28;20294;-61
2021/03/23 06:02:59;;;;;;;8.53;4.20;;;5.80;99.90;;;;;;5092220;28;20198;-61
2021/03/23 06:05:35;;;;;;;6.80;4.30;;;5.80;99.90;;;;;;5092262;28;20187;-62
2021/03/23 06:08:23;;;;;;;6.97;4.40;;;5.90;99.90;;;;;;5092386;28;20266;-60
2021/03/23 06:11:02;;;;;;;7.83;3.87;;;6.00;99.90;;;;;;5092074;28;20262;-61
2021/03/23 06:13:36;;;;;;;6.47;3.93;;;6.20;99.90;;;;;;5092007;28;20819;-61
2021/03/23 06:16:14;;;;;;;5.93;3.60;;;6.30;99.90;;;;;;5092404;28;20245;-61
2021/03/23 06:18:53;;;;;;;5.97;4.10;;;6.50;99.90;;;;;;5091699;28;20723;-62
2021/03/23 06:21:26;;;;;;;5.57;4.00;;;6.70;99.90;;;;;;5092262;28;20193;-61
2021/03/23 06:24:02;;;;;;;5.70;3.73;;;6.80;99.90;;;;;;5092011;28;20639;-62
2021/03/23 06:26:46;;;;;;;6.40;4.30;;;7.00;99.90;;;;;;5092268;28;20278;-61
2021/03/23 06:29:28;;;;;;;4.97;3.87;;;7.00;99.90;;;;;;5091693;28;20184;-61
2021/03/23 06:32:16;;;;;;;5.47;3.83;;;6.90;99.90;;;;;;5093907;28;20188;-61
2021/03/23 06:34:44;;;;;;;6.20;3.80;;;6.80;99.90;;;;;;5094865;28;20651;-61
2021/03/23 06:37:22;;;;;;;7.50;3.80;;;6.80;99.90;;;;;;5085673;28;20204;-62
2021/03/23 06:39:50;;;;;;;6.07;3.93;;;6.60;99.90;;;;;;5075185;28;20191;-61
2021/03/23 06:42:35;;;;;;;7.57;4.40;;;6.50;99.90;;;;;;5089912;28;20209;-60
2021/03/23 06:45:31;;;;;;;7.07;4.77;;;6.40;99.90;;;;;;5087559;28;20191;-62
2021/03/23 06:48:14;;;;;;;7.10;4.47;;;6.30;99.90;;;;;;5083081;28;20640;-61
2021/03/23 06:50:42;;;;;;;6.97;4.00;;;6.30;99.90;;;;;;5079303;28;20286;-61
2021/03/23 06:53:11;;;;;;;7.40;3.80;;;6.30;99.90;;;;;;5095338;28;20265;-61
2021/03/23 06:55:40;;;;;;;5.03;3.67;;;6.20;99.90;;;;;;5095319;28;20206;-61
2021/03/23 06:58:31;;;;;;;6.07;4.00;;;6.10;99.90;;;;;;5095293;28;20218;-61
2021/03/23 07:01:17;;;;;;;5.93;3.83;;;6.20;99.90;;;;;;5089189;28;20203;-62
2021/03/23 07:03:48;;;;;;;6.03;3.47;;;6.20;99.90;;;;;;5074147;28;20200;-62
2021/03/23 07:06:23;;;;;;;6.33;4.33;;;6.10;99.90;;;;;;5074655;28;20264;-61
2021/03/23 07:09:08;;;;;;;5.97;3.97;;;6.10;99.90;;;;;;5074747;28;20195;-62
2021/03/23 07:11:57;;;;;;;4.83;3.80;;;6.00;99.90;;;;;;5084818;28;20269;-61
2021/03/23 07:14:31;;;;;;;4.80;3.70;;;5.90;99.90;;;;;;5075049;28;20291;-61
2021/03/23 07:17:15;;;;;;;5.63;4.27;;;5.90;99.90;;;;;;5074728;28;20235;-61
2021/03/23 07:19:44;;;;;;;6.27;4.30;;;6.00;99.90;;;;;;5074557;28;20232;-61
2021/03/23 07:22:19;;;;;;;5.60;3.97;;;5.90;99.90;;;;;;5074801;28;20299;-61
2021/03/23 07:24:51;;;;;;;6.83;4.23;;;5.90;99.90;;;;;;5074188;28;20283;-62
2021/03/23 07:27:20;;;;;;;6.27;4.83;;;5.80;99.90;;;;;;5074362;28;20287;-61
2021/03/23 07:29:47;;;;;;;7.23;4.17;;;5.70;99.90;;;;;;5074160;28;20239;-62
2021/03/23 07:32:39;;;;;;;6.90;4.93;;;5.80;99.90;;;;;;5074146;28;20204;-62
2021/03/23 07:35:17;;;;;;;5.87;4.33;;;5.80;99.90;;;;;;5074547;28;20188;-61
2021/03/23 07:37:50;;;;;;;4.73;4.00;;;5.80;99.90;;;;;;5081368;28;20750;-62
2021/03/23 07:40:25;;;;;;;4.43;3.80;;;5.90;99.90;;;;;;5081628;28;20275;-60
2021/03/23 07:43:14;;;;;;;4.00;2.77;;;6.00;99.90;;;;;;5073800;28;20230;-61
2021/03/23 07:45:50;;;;;;;4.07;2.87;;;6.00;99.90;;;;;;5073842;28;20697;-61
2021/03/23 07:48:20;;;;;;;4.13;2.83;;;6.20;99.90;;;;;;5073610;28;20246;-60
2021/03/23 07:50:51;;;;;;;3.47;2.60;;;6.30;99.90;;;;;;5079288;28;20195;-61
2021/03/23 07:53:25;;;;;;;4.47;3.00;;;6.50;99.90;;;;;;5085820;28;20226;-60
2021/03/23 07:55:52;;;;;;;3.90;2.93;;;6.60;99.90;;;;;;5073511;28;20276;-60
2021/03/23 07:58:40;;;;;;;4.17;2.87;;;6.80;99.90;;;;;;5074740;28;20213;-60
2021/03/23 08:01:19;;;;;;;4.30;3.00;;;6.90;99.90;;;;;;5085761;28;20516;-60
2021/03/23 08:04:03;;;;;;;4.03;3.30;;;7.10;99.90;;;;;;5092893;28;20632;-60
2021/03/23 08:06:38;;;;;;;6.53;3.50;;;7.20;99.90;;;;;;5075599;28;20238;-62
2021/03/23 08:09:18;;;;;;;4.57;3.20;;;7.30;99.90;;;;;;5089398;28;20233;-64
2021/03/23 08:11:54;;;;;;;4.67;3.17;;;7.50;99.90;;;;;;5090512;28;20262;-63
2021/03/23 08:14:36;;;;;;;6.37;4.10;;;7.70;99.90;;;;;;5090999;28;20184;-65
2021/03/23 08:17:19;;;;;;;3.90;3.27;;;7.90;99.90;;;;;;5090555;28;20185;-61
2021/03/23 08:20:02;;;;;;;4.87;3.83;;;8.10;99.90;;;;;;5090397;28;20266;-61
2021/03/23 08:23:08;;;;;;;4.53;3.80;;;8.20;99.90;;;;;;5089174;28;20607;-61
2021/03/23 08:25:45;;;;;;;5.40;3.70;;;8.10;99.90;;;;;;5027820;28;20190;-61
2021/03/23 08:28:26;;;;;;;5.53;3.70;;;8.20;99.90;;;;;;5027882;28;20181;-61
2021/03/23 08:31:25;;;;;;;4.77;3.70;;;8.20;99.90;;;;;;5066416;28;20196;-62
2021/03/23 08:34:03;;;;;;;4.67;3.80;;;8.20;99.90;;;;;;5085523;28;20204;-61
2021/03/23 08:36:51;;;;;;;4.23;3.83;;;8.10;99.90;;;;;;5090816;28;20548;-62
2021/03/23 08:39:28;;;;;;;4.17;3.73;;;8.00;99.90;;;;;;5090423;28;20325;-61
2021/03/23 08:42:01;;;;;;;4.77;3.97;;;8.00;99.90;;;;;;5091351;28;20350;-61
2021/03/23 08:44:34;;;;;;;5.50;4.33;;;8.00;99.90;;;;;;5099598;28;20271;-62
2021/03/23 08:47:08;;;;;;;5.07;4.13;;;8.00;99.90;;;;;;5089606;28;20255;-62
2021/03/23 08:49:38;;;;;;;5.00;3.87;;;8.00;99.90;;;;;;5069960;28;20196;-62
2021/03/23 08:52:17;;;;;;;4.50;4.10;;;7.90;99.90;;;;;;5069260;28;20773;-61
2021/03/23 08:54:47;;;;;;;5.77;4.90;;;7.90;99.90;;;;;;5068585;28;20713;-62
2021/03/23 08:57:15;;;;;;;6.23;4.50;;;7.90;99.90;;;;;;5086654;28;20674;-63
2021/03/23 09:00:00;;;;;;;6.30;3.97;;;7.90;99.90;;;;;;5089120;28;20233;-62
2021/03/23 09:02:46;;;;;;;5.53;4.57;;;7.80;99.90;;;;;;5089339;28;20188;-62
2021/03/23 09:06:04;;;;;;;5.37;4.47;;;7.80;99.90;;;;;;5089800;28;20275;-63
2021/03/23 09:08:36;;;;;;;6.10;4.07;;;7.90;99.90;;;;;;5026816;28;20197;-62
2021/03/23 09:11:07;;;;;;;5.07;4.23;;;8.00;99.90;;;;;;5026417;28;20329;-64
2021/03/23 09:14:17;;;;;;;3.33;2.50;;;8.10;99.90;;;;;;5066017;28;20290;-61
2021/03/23 09:16:55;;;;;;;2.20;2.00;;;8.20;99.90;;;;;;5088965;28;20180;-64
2021/03/23 09:19:38;;;;;;;2.23;1.97;;;8.20;99.90;;;;;;5089748;28;20210;-61
2021/03/23 09:22:07;;;;;;;2.53;2.07;;;8.40;99.90;;;;;;5089830;28;20279;-62
2021/03/23 09:24:38;;;;;;;2.07;1.87;;;8.50;99.90;;;;;;5089451;28;20196;-62
2021/03/23 09:27:09;;;;;;;2.57;2.13;;;8.60;99.90;;;;;;5089173;28;20275;-62
2021/03/23 09:29:48;;;;;;;2.23;2.03;;;8.70;99.90;;;;;;5089589;28;20188;-61
2021/03/23 09:32:24;;;;;;;2.67;1.90;;;8.80;99.90;;;;;;5089463;28;20290;-62
2021/03/23 09:35:20;;;;;;;3.00;2.40;;;8.90;99.90;;;;;;5089318;28;20196;-62
2021/03/23 09:37:50;;;;;;;4.10;2.00;;;8.90;99.90;;;;;;5088989;28;20246;-63
2021/03/23 09:40:54;;;;;;;2.73;1.80;;;8.80;99.90;;;;;;5088725;28;20568;-62
2021/03/23 09:43:32;;;;;;;3.17;2.43;;;8.80;99.90;;;;;;5087094;28;20199;-65
2021/03/23 09:46:15;;;;;;;3.13;2.40;;;8.90;99.90;;;;;;5088798;28;20215;-61
2021/03/23 09:48:51;;;;;;;3.63;2.17;;;8.90;99.90;;;;;;5089127;28;20214;-60
2021/03/23 09:51:42;;;;;;;3.50;2.57;;;8.80;99.90;;;;;;5089242;28;20218;-60
2021/03/23 09:54:16;;;;;;;3.57;2.97;;;8.90;99.90;;;;;;5089191;28;20282;-59
2021/03/23 09:56:47;;;;;;;3.33;2.90;;;8.70;99.90;;;;;;5088974;28;20194;-59
2021/03/23 09:59:16;;;;;;;3.73;3.40;;;8.40;99.90;;;;;;5088958;28;20661;-59
2021/03/23 10:01:55;;;;;;;3.63;2.97;;;8.50;99.90;;;;;;5089003;28;20227;-60
2021/03/23 10:04:33;;;;;;;4.50;2.93;;;8.40;99.90;;;;;;5089286;28;20192;-61
2021/03/23 10:07:00;;;;;;;3.10;2.63;;;8.50;99.90;;;;;;5093273;28;20604;-61
2021/03/23 10:09:30;;;;;;;3.17;2.87;;;8.50;99.90;;;;;;5092667;28;20280;-62
2021/03/23 10:11:58;;;;;;;3.53;3.00;;;8.60;99.90;;;;;;5092078;28;21095;-61
2021/03/23 10:14:36;;;;;;;3.63;3.27;;;8.90;99.90;;;;;;5092305;28;20295;-60
2021/03/23 10:17:15;;;;;;;4.03;3.00;;;9.10;99.90;;;;;;5089781;28;20634;-58
2021/03/23 10:19:48;;;;;;;3.60;3.23;;;9.40;99.90;;;;;;5092398;28;20571;-61
2021/03/23 10:22:17;;;;;;;4.67;3.13;;;9.40;99.90;;;;;;5092626;28;20609;-60
2021/03/23 10:24:46;;;;;;;3.57;2.93;;;9.50;99.90;;;;;;5092385;28;20231;-62
2021/03/23 10:27:20;;;;;;;3.80;3.00;;;9.50;99.90;;;;;;5092761;28;20284;-61
2021/03/23 10:30:06;;;;;;;3.57;3.00;;;9.40;99.90;;;;;;5092192;28;20276;-62
2021/03/23 10:32:37;;;;;;;3.90;3.10;;;9.20;99.90;;;;;;5092312;28;20275;-62
2021/03/23 10:35:12;;;;;;;3.87;3.00;;;8.90;99.90;;;;;;5092368;28;20188;-66
2021/03/23 10:37:40;;;;;;;3.30;3.00;;;8.70;99.90;;;;;;5092584;28;20190;-59
2021/03/23 10:40:32;;;;;;;4.70;3.10;;;8.60;99.90;;;;;;5091783;28;20732;-60
2021/03/23 10:42:59;;;;;;;4.10;2.63;;;8.60;99.90;;;;;;5092059;28;20184;-59
2021/03/23 10:45:34;;;;;;;5.17;3.20;;;8.60;99.90;;;;;;5092096;28;20330;-60
2021/03/23 10:48:08;;;;;;;3.97;2.83;;;8.40;99.90;;;;;;5092516;28;20184;-62
2021/03/23 10:50:38;;;;;;;3.47;3.17;;;8.40;99.90;;;;;;5089764;28;20512;-62
2021/03/23 10:53:11;;;;;;;4.00;3.07;;;8.30;99.90;;;;;;5092148;28;20223;-63
2021/03/23 10:55:42;;;;;;;4.70;3.13;;;8.30;99.90;;;;;;5091844;28;20616;-63
2021/03/23 10:58:17;;;;;;;6.00;3.40;;;8.30;99.90;;;;;;5091452;28;20181;-61
2021/03/23 11:00:45;;;;;;;5.23;3.53;;;8.40;99.90;;;;;;5091589;28;20254;-61
2021/03/23 11:03:24;;;;;;;5.17;3.67;;;8.50;99.90;;;;;;5092165;28;20263;-60
2021/03/23 11:05:53;;;;;;;4.63;3.50;;;8.40;99.90;;;;;;5091879;28;20195;-61
2021/03/23 11:08:20;;;;;;;4.13;3.50;;;8.40;99.90;;;;;;5091918;28;20287;-61
2021/03/23 11:10:48;;;;;;;4.20;3.40;;;8.40;99.90;;;;;;5091056;28;20240;-60
2021/03/23 11:13:17;;;;;;;5.00;4.37;;;8.50;99.90;;;;;;5091427;28;20703;-62
2021/03/23 11:15:48;;;;;;;5.30;3.73;;;8.60;99.90;;;;;;5091444;28;20291;-63
2021/03/23 11:18:19;;;;;;;4.80;3.70;;;8.50;99.90;;;;;;5090975;28;20216;-62
2021/03/23 11:20:47;;;;;;;5.57;4.00;;;8.50;99.90;;;;;;5091409;28;20184;-61
2021/03/23 11:23:33;;;;;;;4.73;3.57;;;8.40;99.90;;;;;;5081578;28;20211;-63
2021/03/23 11:26:01;;;;;;;4.27;3.67;;;8.30;99.90;;;;;;5075810;28;20660;-63
2021/03/23 11:28:30;;;;;;;5.10;4.10;;;8.20;99.90;;;;;;5070592;28;20637;-64
2021/03/23 11:30:57;;;;;;;6.23;4.80;;;8.10;99.90;;;;;;5084153;28;20747;-63
2021/03/23 11:33:24;;;;;;;5.40;4.50;;;8.00;99.90;;;;;;5091444;28;20231;-63
2021/03/23 11:35:52;;;;;;;5.80;4.97;;;8.10;99.90;;;;;;5091027;28;20239;-63
2021/03/23 11:38:20;;;;;;;6.97;5.13;;;8.10;99.90;;;;;;5090696;28;20304;-63
2021/03/23 11:40:49;;;;;;;6.20;5.07;;;8.20;99.90;;;;;;5090828;28;20204;-64
2021/03/23 11:43:21;;;;;;;6.33;5.33;;;8.30;99.90;;;;;;5090841;28;20246;-64
2021/03/23 11:45:52;;;;;;;5.90;5.20;;;8.20;99.90;;;;;;5090472;28;20184;-64
2021/03/23 11:48:20;;;;;;;6.17;5.33;;;8.30;99.90;;;;;;5091095;28;20281;-63
2021/03/23 11:50:51;;;;;;;5.90;4.97;;;8.40;99.90;;;;;;5089352;28;20211;-63
2021/03/23 11:53:18;;;;;;;5.80;4.40;;;8.50;99.90;;;;;;5081335;28;20373;-64
2021/03/23 11:55:46;;;;;;;6.37;4.57;;;8.70;99.90;;;;;;5080627;28;20294;-64
2021/03/23 11:58:14;;;;;;;7.60;4.53;;;8.80;99.90;;;;;;5071071;28;20250;-64
2021/03/23 12:00:41;;;;;;;5.47;4.50;;;9.10;99.90;;;;;;5080959;28;20664;-64
2021/03/23 12:03:11;;;;;;;6.40;4.70;;;9.00;99.90;;;;;;5070526;28;20201;-64
2021/03/23 12:05:38;;;;;;;5.23;4.73;;;9.00;99.90;;;;;;5070440;28;20587;-65
2021/03/23 12:08:29;;;;;;;10.73;5.17;;;8.90;99.90;;;;;;5070156;28;20229;-62
2021/03/23 12:11:08;;;;;;;6.17;4.87;;;8.80;99.90;;;;;;5070240;28;20306;-63
2021/03/23 12:13:45;;;;;;;6.13;4.60;;;8.70;99.90;;;;;;5070095;28;20273;-59
2021/03/23 12:16:17;;;;;;;5.60;4.90;;;8.50;99.90;;;;;;5070523;28;20191;-60
2021/03/23 12:18:52;;;;;;;6.50;5.37;;;8.40;99.90;;;;;;5070313;28;20209;-59
2021/03/23 12:21:21;;;;;;;5.73;5.10;;;8.30;99.90;;;;;;5070438;28;20571;-60
2021/03/23 12:23:49;;;;;;;9.00;4.97;;;8.20;99.90;;;;;;5070309;28;20265;-61
2021/03/23 12:26:17;;;;;;;7.93;5.33;;;8.10;99.90;;;;;;5070332;28;20466;-63
2021/03/23 12:28:44;;;;;;;8.07;5.10;;;8.10;99.90;;;;;;5068568;28;20208;-62
2021/03/23 12:31:11;;;;;;;6.10;5.40;;;8.10;99.90;;;;;;5085878;28;20206;-64
2021/03/23 12:33:39;;;;;;;6.43;4.80;;;8.10;99.90;;;;;;5089934;28;20750;-63
2021/03/23 12:36:12;;;;;;;5.23;4.73;;;8.00;99.90;;;;;;5090378;28;20275;-62
2021/03/23 12:38:42;;;;;;;5.07;4.57;;;7.90;99.90;;;;;;5090258;28;20220;-61
2021/03/23 12:41:13;;;;;;;5.33;4.57;;;8.10;99.90;;;;;;5089960;28;20613;-60
2021/03/23 12:43:42;;;;;;;8.03;5.00;;;8.20;99.90;;;;;;5089629;28;20188;-60
2021/03/23 12:46:09;;;;;;;6.90;5.00;;;8.40;99.90;;;;;;5091172;28;20299;-58
2021/03/23 12:48:37;;;;;;;6.10;5.03;;;8.50;99.90;;;;;;5096995;28;20199;-60
2021/03/23 12:51:06;;;;;;;6.03;4.73;;;8.60;99.90;;;;;;5097436;28;20227;-64
2021/03/23 12:53:33;;;;;;;6.37;5.00;;;8.60;99.90;;;;;;5091176;28;20282;-63
2021/03/23 12:56:00;;;;;;;6.60;5.00;;;8.60;99.90;;;;;;5089187;28;20758;-61
2021/03/23 12:58:30;;;;;;;5.30;4.80;;;8.60;99.90;;;;;;5089090;28;20774;-64
2021/03/23 13:00:58;;;;;;;5.23;4.47;;;8.70;99.90;;;;;;5089163;28;20597;-65
2021/03/23 13:03:25;;;;;;;6.50;4.50;;;8.70;99.90;;;;;;5089546;28;20663;-62
2021/03/23 13:05:54;;;;;;;6.40;4.63;;;8.80;99.90;;;;;;5089257;28;20681;-64
2021/03/23 13:08:28;;;;;;;8.70;4.93;;;8.90;99.90;;;;;;5089659;28;20196;-61
2021/03/23 13:11:00;;;;;;;7.07;4.23;;;8.80;99.90;;;;;;5089168;28;20238;-62
2021/03/23 13:13:30;;;;;;;6.10;5.17;;;8.70;99.90;;;;;;5089075;28;20274;-64
2021/03/23 13:15:58;;;;;;;6.13;4.60;;;8.80;99.90;;;;;;5089222;28;20649;-68
2021/03/23 13:18:29;;;;;;;7.07;5.43;;;8.80;99.90;;;;;;5088867;28;20747;-68
2021/03/23 13:20:59;;;;;;;6.10;4.47;;;8.70;99.90;;;;;;5088853;28;20208;-60
2021/03/23 13:23:30;;;;;;;5.67;4.60;;;8.80;99.90;;;;;;5089252;28;20207;-61